KOAK

Metropolitan Oakland International Airport

Oakland, California, USA
METAR KOAK 220353Z 32007KT 10SM CLR 11/07 A3030 RMK AO2 SLP260 T01110072
Observed Flight Rules
Jan-22 @ 03:53 UTC (21 minutes ago) Visual Flight Rules
Wind Visibility Clouds
320° at 7 knots 10 miles
  • Clear skies
Temperatures Readings
Current 11°C / 52°F
Dewpoint 7°C / 45°F
Humidity 77%
Altimeter 30.3" Hg
Pressure 1026 hPa
Elevation 26
METAR KOAK 220353Z 32007KT 10SM CLR 11/07 A3030 RMK AO2 SLP260 T01110072
Observed Flight Rules
Jan-22 @ 03:53 UTC
(21 minutes ago)
VFR
Wind Visibility
320° at 7 knots 10 miles
Clouds
  • Clear skies
Temperature Dewpoint
11°C / 52°F 7°C / 45°F
Humidity Altimeter Pressure
77% 30.3" Hg 1026 hPa